Dallas, Texas
Traffic Map
Current Weather Conditions
Dallas, Texas
Few Clouds
Few Clouds
59°
Feels Like: 59°
Wind Chill: 59° Ceiling: Unl
Heat Index: 59° Visibility: 10mi
Dew Point: 32° Wind: 5mph
Humidity: 36% Direction: 240° (WSW)
Pressure: 30.2in Gusts: 0mph
Raw Report DataKDAL 261753Z 24004KT 10SM FEW250 15/00 A3020 RMK AO2 SLP225 T01500000 10150 20022 58007
Traffic Incident Summary
Active as of:
Severity:
Category:
InformationThere was an issue retrieving the traffic information for this location. Please try a different location or try again shortly.
Advertisements
Track Severe Weather on mobile